Costa de Araujo, Argentina
Current Conditions -  °F | °C
As of 12:00 AM on Saturday 29 Nov 2014 (Local Time) from SAME Reporting Station
Clear Clear  
Wind Chill: 73°   Ceiling: Unl
Heat Index: 73°   Visibility: 6mi
Dew Point: 50°   Wind: 0mph
Humidity: 44%   Direction: NA
Pressure: 29.59"   Gusts: NA
Location:  32.74°S, 68.35°W
Report Text: SAME 290300Z 00000KT CAVOK 23/10 Q1002
Loading
Personal Weather Stations






























Interactive Weather Map New forecast layout! Learn more

10-Day Weather Forecast

Advertisements
Track Severe Weather on mobile